createdAt,value
2023-04-15T00:03:48.737Z,88.58
2023-04-15T00:07:50.569Z,89.00
2023-04-15T00:11:52.769Z,89.07
2023-04-15T00:15:54.390Z,89.62
2023-04-15T00:19:56.022Z,90.16
2023-04-15T00:23:57.666Z,90.17
2023-04-15T00:27:59.553Z,89.82
2023-04-15T00:32:01.453Z,90.13
2023-04-15T00:36:03.834Z,90.38
2023-04-15T00:40:06.431Z,91.89
2023-04-15T00:44:08.314Z,92.49
2023-04-15T00:48:10.799Z,93.19
2023-04-15T00:52:13.364Z,94.15
2023-04-15T00:56:15.787Z,94.75
2023-04-15T01:00:18.318Z,95.76
2023-04-15T01:04:21.349Z,96.12
2023-04-15T01:08:23.116Z,96.65
2023-04-15T01:12:26.970Z,97.45
2023-04-15T01:16:28.890Z,98.12
2023-04-15T01:20:30.683Z,98.93
2023-04-15T01:24:34.190Z,99.80
2023-04-15T01:28:38.642Z,100.00
2023-04-15T01:32:40.372Z,100.00
2023-04-15T01:36:42.205Z,100.00
2023-04-15T01:40:43.923Z,100.00
2023-04-15T01:44:45.580Z,100.00
2023-04-15T01:48:47.579Z,100.00
2023-04-15T01:52:49.324Z,100.00
2023-04-15T01:56:52.241Z,100.00
2023-04-15T02:00:53.985Z,100.00
2023-04-15T02:04:55.867Z,100.00
2023-04-15T02:08:59.285Z,100.00
2023-04-15T02:13:01.359Z,100.00
2023-04-15T02:17:07.538Z,100.00
2023-04-15T02:21:12.780Z,100.00
2023-04-15T02:25:16.973Z,100.00
2023-04-15T02:29:18.634Z,100.00
2023-04-15T02:33:21.884Z,100.00
2023-04-15T02:37:24.902Z,100.00
2023-04-15T02:41:28.586Z,100.00
2023-04-15T02:45:30.879Z,100.00
2023-04-15T02:49:37.291Z,100.00
2023-04-15T02:53:38.908Z,100.00
2023-04-15T02:57:41.349Z,100.00
2023-04-15T03:01:44.998Z,100.00
2023-04-15T03:05:46.810Z,100.00
2023-04-15T03:09:48.608Z,100.00
2023-04-15T03:13:50.307Z,100.00
2023-04-15T03:18:05.500Z,100.00
2023-04-15T03:22:09.084Z,100.00
2023-04-15T03:26:10.874Z,100.00
2023-04-15T03:30:13.609Z,100.00
2023-04-15T03:34:16.208Z,100.00
2023-04-15T03:38:18.677Z,100.00
2023-04-15T03:42:20.563Z,100.00
2023-04-15T03:46:22.258Z,100.00
2023-04-15T03:50:23.950Z,100.00
2023-04-15T03:54:25.773Z,100.00
2023-04-15T03:58:27.445Z,100.00
2023-04-15T04:02:29.223Z,100.00
2023-04-15T04:06:31.306Z,100.00
2023-04-15T04:10:32.989Z,100.00
2023-04-15T04:14:34.703Z,100.00
2023-04-15T04:18:36.560Z,100.00
2023-04-15T04:22:40.172Z,100.00
2023-04-15T04:26:41.880Z,100.00
2023-04-15T04:30:43.607Z,100.00
2023-04-15T04:34:45.692Z,100.00
2023-04-15T04:38:47.597Z,100.00
2023-04-15T04:42:49.334Z,100.00
2023-04-15T04:46:51.106Z,100.00
2023-04-15T04:50:53.211Z,100.00
2023-04-15T04:54:54.895Z,100.00
2023-04-15T04:58:56.661Z,100.00
2023-04-15T05:02:59.026Z,100.00
2023-04-15T05:07:01.292Z,100.00
2023-04-15T05:11:03.697Z,100.00
2023-04-15T05:15:07.064Z,100.00
2023-04-15T05:19:08.758Z,100.00
2023-04-15T05:23:10.519Z,100.00
2023-04-15T05:27:12.347Z,100.00
2023-04-15T05:31:14.412Z,100.00
2023-04-15T05:35:16.324Z,100.00
2023-04-15T05:39:18.142Z,100.00
2023-04-15T05:43:19.824Z,100.00
2023-04-15T05:47:21.618Z,100.00
2023-04-15T05:51:23.318Z,100.00
2023-04-15T05:55:25.071Z,100.00
2023-04-15T05:59:27.344Z,100.00
2023-04-15T06:03:29.775Z,100.00
2023-04-15T06:07:31.635Z,100.00
2023-04-15T06:11:33.455Z,100.00
2023-04-15T06:15:35.637Z,100.00
2023-04-15T06:19:37.706Z,100.00
2023-04-15T06:23:41.316Z,100.00
2023-04-15T06:27:43.524Z,100.00
2023-04-15T06:31:45.241Z,100.00
2023-04-15T06:35:47.753Z,100.00
2023-04-15T06:39:49.406Z,100.00
2023-04-15T06:43:51.591Z,100.00
2023-04-15T06:47:53.425Z,100.00
2023-04-15T06:51:55.208Z,100.00
2023-04-15T06:55:57.106Z,100.00
2023-04-15T06:59:58.903Z,100.00
2023-04-15T07:04:00.651Z,100.00
2023-04-15T07:08:02.614Z,100.00
2023-04-15T07:12:04.547Z,100.00
2023-04-15T07:16:06.364Z,100.00
2023-04-15T07:20:08.699Z,100.00
2023-04-15T07:24:10.739Z,100.00
2023-04-15T07:28:12.386Z,100.00
2023-04-15T07:32:14.063Z,100.00
2023-04-15T07:36:15.908Z,98.70
2023-04-15T07:40:17.924Z,97.29
2023-04-15T07:44:19.744Z,94.02
2023-04-15T07:48:21.541Z,92.52
2023-04-15T07:52:23.401Z,91.82
2023-04-15T07:56:25.239Z,88.42
2023-04-15T08:00:27.093Z,89.12
2023-04-15T08:04:31.293Z,89.27
2023-04-15T08:08:33.406Z,89.11
2023-04-15T08:12:37.348Z,87.50
2023-04-15T08:16:39.271Z,86.12
2023-04-15T08:20:41.470Z,85.18
2023-04-15T08:24:44.818Z,83.61
2023-04-15T08:28:46.978Z,80.90
2023-04-15T08:32:51.557Z,78.90
2023-04-15T08:36:54.042Z,78.65
2023-04-15T08:40:58.740Z,78.27
2023-04-15T08:45:01.991Z,76.66
2023-04-15T08:49:05.316Z,72.11
2023-04-15T08:53:07.791Z,70.81
2023-04-15T08:57:09.989Z,69.58
2023-04-15T09:01:14.528Z,65.43
2023-04-15T09:05:17.194Z,67.06
2023-04-15T09:09:19.004Z,61.57
2023-04-15T09:13:20.678Z,63.30
2023-04-15T09:17:22.498Z,61.72
2023-04-15T09:21:25.040Z,60.50
2023-04-15T09:25:28.438Z,59.94
2023-04-15T09:29:30.389Z,58.17
2023-04-15T09:33:32.143Z,57.28
2023-04-15T09:37:38.487Z,53.12
2023-04-15T09:41:41.892Z,51.70
2023-04-15T09:45:54.176Z,51.91
2023-04-15T09:49:57.894Z,50.69
2023-04-15T09:53:59.921Z,49.11
2023-04-15T09:58:01.803Z,50.65
2023-04-15T10:02:06.821Z,49.28
2023-04-15T10:06:10.212Z,48.79
2023-04-15T10:10:13.047Z,46.63
2023-04-15T10:14:16.321Z,47.56
2023-04-15T10:18:24.450Z,47.09
2023-04-15T10:22:28.318Z,47.06
2023-04-15T10:26:31.142Z,46.07
2023-04-15T10:30:33.794Z,47.49
2023-04-15T10:34:36.394Z,47.06
2023-04-15T10:38:41.940Z,47.53
2023-04-15T10:42:43.754Z,48.79
2023-04-15T10:46:45.956Z,48.96
2023-04-15T10:51:03.978Z,49.60
2023-04-15T10:55:19.421Z,50.25
2023-04-15T10:59:22.785Z,50.36
2023-04-15T11:03:41.925Z,49.84
2023-04-15T11:07:44.904Z,49.99
2023-04-15T11:12:10.079Z,50.01
2023-04-15T11:16:12.034Z,48.91
2023-04-15T11:20:16.164Z,49.32
2023-04-15T11:24:27.435Z,49.15
2023-04-15T11:28:31.121Z,47.30
2023-04-15T11:32:33.031Z,47.02
2023-04-15T11:36:35.405Z,46.52
2023-04-15T11:40:37.887Z,46.81
2023-04-15T11:44:39.697Z,47.18
2023-04-15T11:48:46.955Z,44.94
2023-04-15T11:53:00.098Z,45.09
2023-04-15T11:57:03.505Z,43.72
2023-04-15T12:01:06.485Z,42.77
2023-04-15T12:05:08.869Z,42.14
2023-04-15T12:09:14.619Z,43.17
2023-04-15T12:13:19.576Z,43.67
2023-04-15T12:17:23.746Z,44.22
2023-04-15T12:21:26.797Z,44.92
2023-04-15T12:25:37.476Z,44.99
2023-04-15T12:29:40.770Z,45.08
2023-04-15T12:33:42.825Z,45.90
2023-04-15T12:37:44.722Z,47.13
2023-04-15T12:41:46.460Z,47.65
2023-04-15T12:45:49.822Z,49.06
2023-04-15T12:49:51.974Z,50.32
2023-04-15T12:53:54.006Z,54.79
2023-04-15T12:57:55.809Z,61.44
2023-04-15T13:01:58.064Z,64.42
2023-04-15T13:06:02.321Z,68.60
2023-04-15T13:10:05.042Z,71.27
2023-04-15T13:14:08.654Z,71.44
2023-04-15T13:18:10.973Z,75.97
2023-04-15T13:22:13.490Z,76.28
2023-04-15T13:26:16.455Z,77.63
2023-04-15T13:30:21.911Z,81.39
2023-04-15T13:34:24.496Z,85.79
2023-04-15T13:38:26.349Z,86.22
2023-04-15T13:42:30.141Z,90.82
2023-04-15T13:46:31.892Z,90.95
2023-04-15T13:50:33.554Z,88.68
2023-04-15T13:54:37.365Z,93.29
2023-04-15T13:58:41.225Z,94.03
2023-04-15T14:02:43.318Z,94.37
2023-04-15T14:06:46.193Z,93.03
2023-04-15T14:10:50.454Z,94.40
2023-04-15T14:14:52.188Z,93.30
2023-04-15T14:18:55.170Z,92.91
2023-04-15T14:22:56.885Z,93.20
2023-04-15T14:26:59.491Z,92.05
2023-04-15T14:31:01.623Z,92.79
2023-04-15T14:35:04.485Z,95.17
2023-04-15T14:39:07.053Z,97.16
2023-04-15T14:43:09.877Z,99.89
2023-04-15T14:47:11.608Z,99.71
2023-04-15T14:51:13.459Z,100.00
2023-04-15T14:55:15.979Z,100.00
2023-04-15T14:59:18.030Z,100.00
2023-04-15T15:03:19.856Z,100.00
2023-04-15T15:07:21.722Z,100.00
2023-04-15T15:11:23.452Z,100.00
2023-04-15T15:15:29.069Z,100.00
2023-04-15T15:19:31.524Z,100.00
2023-04-15T15:23:33.500Z,100.00
2023-04-15T15:27:37.706Z,100.00
2023-04-15T15:31:40.315Z,100.00
2023-04-15T15:35:42.947Z,100.00
2023-04-15T15:39:46.745Z,100.00
2023-04-15T15:43:48.626Z,100.00
2023-04-15T15:47:52.079Z,100.00
2023-04-15T15:51:53.855Z,100.00
2023-04-15T15:55:55.755Z,100.00
2023-04-15T16:00:10.392Z,100.00
2023-04-15T16:04:14.755Z,100.00
2023-04-15T16:08:17.168Z,100.00
2023-04-15T16:12:18.878Z,100.00
2023-04-15T16:16:20.707Z,100.00
2023-04-15T16:20:22.909Z,100.00
2023-04-15T16:24:24.855Z,100.00
2023-04-15T16:28:27.486Z,100.00
2023-04-15T16:32:31.651Z,100.00
2023-04-15T16:36:38.416Z,100.00
2023-04-15T16:40:41.808Z,100.00
2023-04-15T16:44:43.590Z,100.00
2023-04-15T16:49:12.135Z,100.00
2023-04-15T16:53:16.377Z,100.00
2023-04-15T16:57:20.235Z,100.00
2023-04-15T17:01:27.538Z,100.00
2023-04-15T17:05:31.268Z,100.00
2023-04-15T17:09:35.059Z,100.00
2023-04-15T17:13:36.950Z,100.00
2023-04-15T17:17:39.459Z,100.00
2023-04-15T17:21:42.172Z,100.00
2023-04-15T17:25:43.913Z,100.00
2023-04-15T17:29:45.731Z,100.00
2023-04-15T17:34:00.404Z,100.00
2023-04-15T17:38:09.226Z,100.00
2023-04-15T17:42:11.751Z,100.00
2023-04-15T17:46:14.309Z,100.00
2023-04-15T17:50:16.447Z,100.00
2023-04-15T17:54:18.135Z,100.00
2023-04-15T17:58:20.641Z,100.00
2023-04-15T18:02:24.031Z,100.00
2023-04-15T18:06:26.761Z,100.00
2023-04-15T18:10:29.504Z,100.00
2023-04-15T18:14:35.019Z,100.00
2023-04-15T18:18:36.978Z,100.00
2023-04-15T18:22:38.714Z,100.00
2023-04-15T18:26:40.463Z,100.00
2023-04-15T18:30:42.123Z,100.00
2023-04-15T18:34:44.013Z,100.00
2023-04-15T18:38:46.383Z,100.00
2023-04-15T18:42:48.164Z,100.00
2023-04-15T18:46:50.111Z,100.00
2023-04-15T18:50:54.279Z,100.00
2023-04-15T18:54:56.114Z,100.00
2023-04-15T18:59:08.836Z,100.00
2023-04-15T19:03:19.585Z,100.00
2023-04-15T19:07:23.158Z,100.00
2023-04-15T19:11:25.759Z,100.00
2023-04-15T19:15:27.601Z,100.00
2023-04-15T19:19:30.414Z,100.00
2023-04-15T19:23:32.749Z,100.00
2023-04-15T19:27:34.680Z,100.00
2023-04-15T19:31:37.525Z,100.00
2023-04-15T19:35:42.827Z,100.00
2023-04-15T19:39:44.661Z,100.00
2023-04-15T19:43:46.631Z,100.00
2023-04-15T19:47:49.401Z,100.00
2023-04-15T19:51:51.417Z,100.00
2023-04-15T19:55:53.062Z,100.00
2023-04-15T19:59:54.766Z,100.00
2023-04-15T20:03:57.829Z,100.00
2023-04-15T20:08:01.314Z,100.00
2023-04-15T20:12:44.873Z,100.00
2023-04-15T20:16:25.312Z,100.00
2023-04-15T20:20:27.168Z,100.00
2023-04-15T20:24:29.060Z,100.00
2023-04-15T20:28:30.929Z,100.00
2023-04-15T20:32:36.092Z,100.00
2023-04-15T20:36:38.603Z,100.00
2023-04-15T20:40:41.766Z,100.00
2023-04-15T20:44:43.814Z,100.00
2023-04-15T20:48:45.737Z,100.00
2023-04-15T20:52:47.362Z,100.00
2023-04-15T20:56:49.134Z,100.00
2023-04-15T21:00:51.338Z,100.00
2023-04-15T21:04:55.410Z,100.00
2023-04-15T21:08:58.798Z,100.00
2023-04-15T21:13:02.288Z,100.00
2023-04-15T21:17:09.248Z,100.00
2023-04-15T21:21:12.041Z,100.00
2023-04-15T21:25:13.767Z,100.00
2023-04-15T21:29:16.805Z,100.00
2023-04-15T21:33:20.953Z,100.00
2023-04-15T21:37:22.770Z,100.00
2023-04-15T21:41:24.480Z,100.00
2023-04-15T21:45:26.568Z,100.00
2023-04-15T21:49:28.313Z,100.00
2023-04-15T21:53:30.037Z,100.00
2023-04-15T21:57:31.842Z,100.00
2023-04-15T22:01:34.969Z,100.00
2023-04-15T22:05:36.981Z,100.00
2023-04-15T22:09:38.616Z,100.00
2023-04-15T22:13:40.295Z,100.00
2023-04-15T22:17:42.035Z,100.00
2023-04-15T22:21:43.933Z,100.00
2023-04-15T22:25:46.159Z,100.00
2023-04-15T22:29:47.967Z,100.00
2023-04-15T22:33:49.694Z,100.00
2023-04-15T22:37:52.593Z,100.00
2023-04-15T22:41:54.379Z,100.00
2023-04-15T22:45:56.862Z,100.00
2023-04-15T22:50:01.030Z,100.00
2023-04-15T22:54:03.135Z,100.00
2023-04-15T22:58:04.778Z,100.00
2023-04-15T23:02:40.427Z,100.00
2023-04-15T23:06:42.739Z,100.00
2023-04-15T23:10:44.788Z,100.00
2023-04-15T23:14:49.640Z,100.00
2023-04-15T23:18:51.510Z,100.00
2023-04-15T23:22:53.209Z,100.00
2023-04-15T23:26:55.290Z,100.00
2023-04-15T23:30:59.805Z,100.00
2023-04-15T23:35:02.294Z,100.00
2023-04-15T23:39:04.391Z,100.00
2023-04-15T23:43:06.168Z,100.00
2023-04-15T23:47:07.832Z,100.00
2023-04-15T23:51:09.459Z,100.00
2023-04-15T23:55:11.232Z,100.00
2023-04-15T23:59:12.894Z,100.00
